Time;durP1;ratioP1;P1;durP2;ratioP2;P2;SDS_P1;SDS_P2;PMS_P1;PMS_P2;Temp;Humidity;BMP_temperature;BMP_pressure;BME280_temperature;BME280_humidity;BME280_pressure;Samples;Min_cycle;Max_cycle;Signal;HPM_P1;HPM_P2
2022/01/22 00:01:23;;;;;;;9.80;4.83;;;;;;;;;;782809;176;919286;-65
2022/01/22 00:03:49;;;;;;;8.50;5.10;;;;;;;;;;780940;176;919318;-65
2022/01/22 00:06:15;;;;;;;10.37;5.53;;;;;;;;;;782830;176;919430;-65
2022/01/22 00:08:41;;;;;;;11.80;5.83;;;;;;;;;;787747;177;918178;-67
2022/01/22 00:11:07;;;;;;;11.20;6.17;;;;;;;;;;779295;177;920221;-66
2022/01/22 00:16:04;;;;;;;9.82;6.50;;;;;;;;;;784396;176;1130330;-64
2022/01/22 00:18:31;;;;;;;8.50;5.90;;;;;;;;;;781021;178;918554;-66
2022/01/22 00:20:56;;;;;;;11.93;4.77;;;;;;;;;;780553;176;919069;-65
2022/01/22 00:23:26;;;;;;;13.68;6.57;;;;;;;;;;780027;177;918974;-64
2022/01/22 00:25:48;;;;;;;13.47;5.63;;;;;;;;;;784314;177;918986;-65
2022/01/22 00:28:14;;;;;;;10.37;5.70;;;;;;;;;;772189;177;918575;-65
2022/01/22 00:30:40;;;;;;;12.57;6.63;;;;;;;;;;782650;177;888820;-66
2022/01/22 00:33:05;;;;;;;7.67;5.60;;;;;;;;;;784166;177;919477;-66
2022/01/22 00:35:31;;;;;;;11.05;5.75;;;;;;;;;;779210;176;918255;-67
2022/01/22 00:37:59;;;;;;;14.70;5.97;;;;;;;;;;778486;176;919775;-64
2022/01/22 00:40:23;;;;;;;7.87;5.50;;;;;;;;;;790597;176;919039;-65
2022/01/22 00:42:49;;;;;;;12.63;8.50;;;;;;;;;;779856;176;925322;-65
2022/01/22 00:45:15;;;;;;;14.90;6.47;;;;;;;;;;778952;176;919144;-65
2022/01/22 00:47:40;;;;;;;11.65;6.43;;;;;;;;;;783484;176;918948;-65
2022/01/22 00:50:07;;;;;;;17.77;6.70;;;;;;;;;;787357;177;918234;-66
2022/01/22 00:52:33;;;;;;;13.20;6.10;;;;;;;;;;779558;177;920989;-66
2022/01/22 00:54:58;;;;;;;12.20;4.63;;;;;;;;;;780066;176;922410;-65
2022/01/22 00:57:24;;;;;;;8.73;5.60;;;;;;;;;;782885;176;919850;-65
2022/01/22 00:59:50;;;;;;;11.53;6.93;;;;;;;;;;777585;177;916286;-65
2022/01/22 01:02:16;;;;;;;10.30;5.63;;;;;;;;;;778396;177;913441;-65
2022/01/22 01:04:42;;;;;;;15.23;6.00;;;;;;;;;;786153;177;913970;-66
2022/01/22 01:07:08;;;;;;;8.53;5.97;;;;;;;;;;780559;176;918443;-65
2022/01/22 01:09:36;;;;;;;10.55;6.95;;;;;;;;;;782054;177;919212;-65
2022/01/22 01:12:03;;;;;;;8.33;5.43;;;;;;;;;;781928;176;1738639;-65
2022/01/22 01:14:32;;;;;;;11.67;6.23;;;;;;;;;;786124;176;918704;-67
2022/01/22 01:34:39;;;;;;;10.60;6.40;;;;;;;;;;793222;173;920371;-64
2022/01/22 01:37:00;;;;;;;12.17;6.37;;;;;;;;;;790818;175;918640;-65
2022/01/22 01:39:30;;;;;;;10.20;8.03;;;;;;;;;;786646;176;919465;-65
2022/01/22 01:41:58;;;;;;;16.43;5.70;;;;;;;;;;784878;176;918877;-65
2022/01/22 01:44:18;;;;;;;10.47;7.87;;;;;;;;;;783473;177;919315;-65
2022/01/22 01:46:44;;;;;;;13.80;6.83;;;;;;;;;;781039;176;918881;-65
2022/01/22 01:49:09;;;;;;;10.03;5.83;;;;;;;;;;778187;178;919000;-65
2022/01/22 01:51:35;;;;;;;10.10;7.10;;;;;;;;;;789702;178;918643;-65
2022/01/22 01:54:10;;;;;;;22.13;6.53;;;;;;;;;;777053;178;920569;-66
2022/01/22 01:58:59;;;;;;;13.00;7.53;;;;;;;;;;764678;183;999928;-65
2022/01/22 02:01:24;;;;;;;8.50;6.50;;;;;;;;;;776057;179;887164;-64
2022/01/22 02:03:50;;;;;;;9.27;5.87;;;;;;;;;;761034;184;920192;-65
2022/01/22 02:06:16;;;;;;;8.88;4.75;;;;;;;;;;751556;184;918574;-64
2022/01/22 02:08:42;;;;;;;8.97;5.47;;;;;;;;;;753512;184;919075;-65
2022/01/22 02:11:09;;;;;;;12.00;5.90;;;;;;;;;;783930;176;919171;-64
2022/01/22 02:13:45;;;;;;;7.65;5.15;;;;;;;;;;780675;177;918803;-64
2022/01/22 02:23:45;;;;;;;6.67;4.10;;;;;;;;;;781831;176;918348;-65
2022/01/22 02:26:09;;;;;;;14.33;8.47;;;;;;;;;;782955;176;1021593;-65
2022/01/22 02:28:35;;;;;;;18.00;7.30;;;;;;;;;;784885;178;919880;-63
2022/01/22 02:31:12;;;;;;;10.97;6.87;;;;;;;;;;779866;179;919540;-64
2022/01/22 02:33:39;;;;;;;6.00;3.50;;;;;;;;;;777677;176;919095;-64
2022/01/22 02:36:07;;;;;;;12.50;7.43;;;;;;;;;;776436;176;918681;-64
2022/01/22 02:38:37;;;;;;;17.70;6.77;;;;;;;;;;785002;176;919482;-65
2022/01/22 02:40:53;;;;;;;15.23;7.03;;;;;;;;;;787070;177;919458;-65
2022/01/22 02:43:20;;;;;;;9.27;5.93;;;;;;;;;;782940;177;919172;-65
2022/01/22 02:45:46;;;;;;;11.10;6.00;;;;;;;;;;788308;176;918694;-65
2022/01/22 02:48:11;;;;;;;11.00;5.37;;;;;;;;;;789502;176;920074;-64
2022/01/22 02:50:37;;;;;;;9.30;5.77;;;;;;;;;;776306;178;918638;-65
2022/01/22 02:53:03;;;;;;;7.03;5.47;;;;;;;;;;784183;176;920067;-65
2022/01/22 02:55:28;;;;;;;8.07;5.40;;;;;;;;;;791683;176;918331;-65
2022/01/22 02:57:54;;;;;;;7.47;4.47;;;;;;;;;;783707;177;916039;-65
2022/01/22 03:00:22;;;;;;;8.75;6.12;;;;;;;;;;764847;178;914890;-66
2022/01/22 03:02:48;;;;;;;11.20;6.83;;;;;;;;;;787420;177;915644;-65
2022/01/22 03:05:12;;;;;;;8.25;6.10;;;;;;;;;;778931;177;914302;-65
2022/01/22 03:07:40;;;;;;;10.97;6.00;;;;;;;;;;777923;178;918804;-65
2022/01/22 03:10:05;;;;;;;9.47;5.27;;;;;;;;;;780031;177;921247;-63
2022/01/22 03:17:54;;;;;;;8.10;4.50;;;;;;;;;;781585;177;919133;-64
2022/01/22 03:20:37;;;;;;;6.10;4.40;;;;;;;;;;780829;177;919451;-63
2022/01/22 03:23:06;;;;;;;8.40;5.23;;;;;;;;;;777811;177;920696;-65
2022/01/22 03:27:56;;;;;;;9.00;5.70;;;;;;;;;;778967;177;918801;-65
2022/01/22 03:30:22;;;;;;;8.90;5.07;;;;;;;;;;779612;177;919422;-65
2022/01/22 03:32:48;;;;;;;9.63;6.13;;;;;;;;;;779139;177;918962;-65
2022/01/22 03:35:27;;;;;;;7.13;4.70;;;;;;;;;;789159;176;918551;-65
2022/01/22 03:37:53;;;;;;;7.90;5.70;;;;;;;;;;788007;176;918630;-64
2022/01/22 03:40:22;;;;;;;8.20;4.73;;;;;;;;;;784329;177;919079;-64
2022/01/22 03:42:48;;;;;;;7.37;5.30;;;;;;;;;;777215;177;919696;-65
2022/01/22 03:45:14;;;;;;;8.87;4.60;;;;;;;;;;783513;176;918559;-65
2022/01/22 03:47:40;;;;;;;6.72;4.10;;;;;;;;;;791750;176;919034;-65
2022/01/22 03:50:06;;;;;;;7.40;4.73;;;;;;;;;;780758;176;920033;-65
2022/01/22 03:52:32;;;;;;;8.77;5.20;;;;;;;;;;779922;177;919085;-65
2022/01/22 03:54:58;;;;;;;11.05;4.85;;;;;;;;;;786999;177;921599;-65
2022/01/22 03:57:24;;;;;;;6.90;4.20;;;;;;;;;;778234;177;919587;-65
2022/01/22 03:59:50;;;;;;;8.20;6.40;;;;;;;;;;777364;177;920207;-64
2022/01/22 04:05:03;;;;;;;8.83;4.23;;;;;;;;;;782946;176;924673;-64
2022/01/22 04:08:01;;;;;;;5.62;3.50;;;;;;;;;;785281;176;919241;-65
2022/01/22 04:09:59;;;;;;;6.73;4.33;;;;;;;;;;779343;177;919295;-65
2022/01/22 04:12:32;;;;;;;7.85;4.22;;;;;;;;;;776678;177;919579;-65
2022/01/22 04:14:56;;;;;;;6.53;4.17;;;;;;;;;;783390;180;919187;-65
2022/01/22 04:17:25;;;;;;;7.93;4.60;;;;;;;;;;777118;179;919675;-65
2022/01/22 04:24:52;;;;;;;10.43;5.70;;;;;;;;;;789443;176;918958;-65
2022/01/22 04:27:21;;;;;;;6.80;5.10;;;;;;;;;;780471;177;919038;-65
2022/01/22 04:29:41;;;;;;;5.97;4.07;;;;;;;;;;778582;176;919435;-65
2022/01/22 04:32:07;;;;;;;6.57;4.27;;;;;;;;;;780020;177;919245;-65
2022/01/22 04:34:33;;;;;;;6.53;4.27;;;;;;;;;;774007;179;918237;-65
2022/01/22 04:36:59;;;;;;;10.70;5.33;;;;;;;;;;783795;175;918738;-65
2022/01/22 04:39:26;;;;;;;6.20;4.23;;;;;;;;;;788238;176;920881;-65
2022/01/22 04:41:52;;;;;;;6.77;5.43;;;;;;;;;;785335;179;917894;-65
2022/01/22 04:44:16;;;;;;;7.40;4.63;;;;;;;;;;778206;177;916969;-65
2022/01/22 04:47:26;;;;;;;9.60;5.35;;;;;;;;;;784529;176;916713;-64
2022/01/22 04:56:59;;;;;;;13.63;6.40;;;;;;;;;;778891;176;1021133;-64
2022/01/22 04:59:25;;;;;;;8.38;6.05;;;;;;;;;;780800;176;919815;-63
2022/01/22 05:01:52;;;;;;;8.80;4.60;;;;;;;;;;780445;177;921434;-63
2022/01/22 05:04:18;;;;;;;7.18;5.60;;;;;;;;;;772397;180;917855;-63
2022/01/22 05:06:43;;;;;;;6.80;4.20;;;;;;;;;;780821;177;919041;-64
2022/01/22 05:09:09;;;;;;;11.43;4.87;;;;;;;;;;776403;177;1024056;-63
2022/01/22 05:11:35;;;;;;;8.37;5.27;;;;;;;;;;776279;177;919358;-64
2022/01/22 05:14:01;;;;;;;7.60;4.37;;;;;;;;;;764823;182;918984;-63
2022/01/22 05:16:27;;;;;;;7.43;5.10;;;;;;;;;;768497;181;918904;-63
2022/01/22 05:19:01;;;;;;;17.43;10.77;;;;;;;;;;773346;180;919677;-64
2022/01/22 05:21:22;;;;;;;7.80;5.57;;;;;;;;;;761365;181;920042;-65
2022/01/22 05:23:48;;;;;;;37.30;20.63;;;;;;;;;;754476;184;919196;-63
2022/01/22 05:27:10;;;;;;;17.53;10.73;;;;;;;;;;781286;177;1020470;-62
2022/01/22 05:29:16;;;;;;;30.50;17.43;;;;;;;;;;774896;177;918735;-63
2022/01/22 05:39:00;;;;;;;9.43;6.40;;;;;;;;;;778829;176;921389;-63
2022/01/22 05:41:26;;;;;;;18.07;11.97;;;;;;;;;;783045;179;918996;-64
2022/01/22 05:43:52;;;;;;;15.03;6.80;;;;;;;;;;779705;177;919993;-64
2022/01/22 05:46:18;;;;;;;13.73;6.68;;;;;;;;;;772914;177;920026;-63
2022/01/22 05:48:44;;;;;;;10.63;6.13;;;;;;;;;;783125;176;919275;-65
2022/01/22 05:51:09;;;;;;;47.03;24.97;;;;;;;;;;779241;176;918515;-64
2022/01/22 05:53:49;;;;;;;13.32;8.52;;;;;;;;;;779991;177;915649;-64
2022/01/22 06:01:18;;;;;;;14.25;8.93;;;;;;;;;;786875;176;919274;-63
2022/01/22 06:03:44;;;;;;;7.30;5.87;;;;;;;;;;779100;176;942696;-64
2022/01/22 06:06:10;;;;;;;14.23;12.70;;;;;;;;;;779367;176;918722;-64
2022/01/22 06:08:44;;;;;;;10.87;9.63;;;;;;;;;;780920;177;919216;-63
2022/01/22 06:11:08;;;;;;;14.30;10.70;;;;;;;;;;777470;180;1022584;-63
2022/01/22 06:13:43;;;;;;;12.90;9.77;;;;;;;;;;769454;182;919555;-64
2022/01/22 06:15:55;;;;;;;10.50;7.57;;;;;;;;;;748142;184;918758;-64
2022/01/22 06:18:21;;;;;;;58.97;28.17;;;;;;;;;;782422;177;917886;-62
2022/01/22 06:20:47;;;;;;;276.27;119.97;;;;;;;;;;779558;177;1020575;-64
2022/01/22 06:23:13;;;;;;;153.53;68.70;;;;;;;;;;780811;177;920034;-64
2022/01/22 06:25:38;;;;;;;94.53;43.33;;;;;;;;;;785746;177;918979;-64
2022/01/22 06:28:04;;;;;;;77.47;33.37;;;;;;;;;;782132;179;918462;-62
2022/01/22 06:30:30;;;;;;;123.93;43.73;;;;;;;;;;780449;177;920065;-63
2022/01/22 06:32:56;;;;;;;37.13;21.73;;;;;;;;;;786743;176;918546;-64
2022/01/22 06:35:22;;;;;;;67.73;32.83;;;;;;;;;;782803;177;930069;-64
2022/01/22 06:37:48;;;;;;;63.87;30.20;;;;;;;;;;777652;177;918932;-64
2022/01/22 06:42:56;;;;;;;99.40;50.03;;;;;;;;;;775663;177;916222;-63
2022/01/22 06:45:22;;;;;;;33.80;19.90;;;;;;;;;;771849;181;921589;-64
2022/01/22 06:47:48;;;;;;;102.47;44.90;;;;;;;;;;780686;176;919075;-60
2022/01/22 06:50:14;;;;;;;51.00;32.27;;;;;;;;;;777393;176;815274;-63
2022/01/22 06:52:40;;;;;;;33.83;25.43;;;;;;;;;;775120;180;632232;-63
2022/01/22 06:55:06;;;;;;;41.90;25.07;;;;;;;;;;752321;182;919643;-63
2022/01/22 06:57:32;;;;;;;41.17;25.77;;;;;;;;;;761071;182;919917;-64
2022/01/22 06:59:58;;;;;;;42.62;29.33;;;;;;;;;;785061;177;1021842;-64
2022/01/22 07:02:25;;;;;;;64.40;33.60;;;;;;;;;;788201;176;914346;-63
2022/01/22 07:04:51;;;;;;;31.87;21.40;;;;;;;;;;784646;176;919490;-63
2022/01/22 07:07:16;;;;;;;31.10;19.67;;;;;;;;;;779228;177;919667;-64
2022/01/22 07:09:42;;;;;;;23.30;14.17;;;;;;;;;;774836;179;918956;-64
2022/01/22 07:12:08;;;;;;;36.30;18.83;;;;;;;;;;776431;176;918311;-63
2022/01/22 07:14:34;;;;;;;24.03;14.80;;;;;;;;;;779774;176;919004;-64
2022/01/22 07:17:00;;;;;;;19.52;11.85;;;;;;;;;;786566;176;924174;-64
2022/01/22 07:19:26;;;;;;;18.80;13.73;;;;;;;;;;774799;176;2045109;-64
2022/01/22 07:22:03;;;;;;;23.60;13.60;;;;;;;;;;775348;180;917776;-65
2022/01/22 07:24:23;;;;;;;24.23;14.73;;;;;;;;;;781453;176;919210;-62
2022/01/22 07:26:48;;;;;;;50.47;29.20;;;;;;;;;;769899;179;918411;-64
2022/01/22 07:29:14;;;;;;;35.53;17.50;;;;;;;;;;780954;176;919795;-63
2022/01/22 07:31:40;;;;;;;19.93;12.57;;;;;;;;;;787412;175;919086;-63
2022/01/22 07:34:06;;;;;;;40.60;22.30;;;;;;;;;;773052;181;918820;-64
2022/01/22 07:36:32;;;;;;;36.80;22.07;;;;;;;;;;785493;176;919058;-64
2022/01/22 07:38:58;;;;;;;18.47;12.83;;;;;;;;;;781473;176;918786;-63
2022/01/22 07:41:23;;;;;;;51.15;25.90;;;;;;;;;;779274;179;918590;-63
2022/01/22 07:43:49;;;;;;;56.80;29.57;;;;;;;;;;781725;177;919106;-63
2022/01/22 07:46:15;;;;;;;48.27;27.37;;;;;;;;;;777038;177;917377;-63
2022/01/22 07:48:41;;;;;;;21.40;14.03;;;;;;;;;;782331;176;918761;-63
2022/01/22 07:51:07;;;;;;;23.67;14.37;;;;;;;;;;784661;177;919277;-64
2022/01/22 07:53:33;;;;;;;37.03;21.65;;;;;;;;;;781196;177;919494;-60
2022/01/22 07:55:58;;;;;;;43.90;20.57;;;;;;;;;;771194;176;2133571;-63
2022/01/22 07:58:24;;;;;;;27.50;13.97;;;;;;;;;;784602;176;919256;-63
2022/01/22 08:00:50;;;;;;;26.85;17.35;;;;;;;;;;779172;177;919699;-65
2022/01/22 08:03:16;;;;;;;23.77;13.70;;;;;;;;;;779552;177;919832;-63
2022/01/22 08:05:42;;;;;;;21.10;12.30;;;;;;;;;;783589;177;917189;-63
2022/01/22 08:08:08;;;;;;;25.80;18.85;;;;;;;;;;779289;176;918958;-64
2022/01/22 08:10:34;;;;;;;35.57;17.23;;;;;;;;;;777826;176;917987;-64
2022/01/22 08:13:00;;;;;;;26.97;17.57;;;;;;;;;;780021;177;1023059;-62
2022/01/22 08:15:26;;;;;;;29.90;15.80;;;;;;;;;;782616;177;919680;-63
2022/01/22 08:17:52;;;;;;;40.73;25.70;;;;;;;;;;779949;176;918854;-64
2022/01/22 08:20:21;;;;;;;53.60;27.13;;;;;;;;;;780605;176;918665;-64
2022/01/22 08:22:47;;;;;;;24.53;14.23;;;;;;;;;;773972;180;918300;-63
2022/01/22 08:25:13;;;;;;;22.03;14.10;;;;;;;;;;781357;176;920799;-64
2022/01/22 08:30:14;;;;;;;19.87;13.40;;;;;;;;;;781137;176;916733;-63
2022/01/22 08:37:44;;;;;;;22.33;14.15;;;;;;;;;;781745;176;919388;-64
2022/01/22 08:40:10;;;;;;;34.70;16.37;;;;;;;;;;778064;176;921915;-62
2022/01/22 08:42:36;;;;;;;86.63;36.20;;;;;;;;;;783082;177;920064;-62
2022/01/22 08:45:02;;;;;;;20.30;12.10;;;;;;;;;;777468;177;920431;-62
2022/01/22 08:47:27;;;;;;;20.53;11.63;;;;;;;;;;778398;176;919655;-64
2022/01/22 08:49:53;;;;;;;24.17;13.33;;;;;;;;;;783415;176;917750;-62
2022/01/22 08:52:24;;;;;;;16.85;8.25;;;;;;;;;;779519;176;918401;-62
2022/01/22 08:54:45;;;;;;;16.17;11.73;;;;;;;;;;781569;177;919539;-62
2022/01/22 08:57:11;;;;;;;38.20;15.02;;;;;;;;;;783954;177;918955;-63
2022/01/22 08:59:37;;;;;;;28.50;16.10;;;;;;;;;;787530;177;909580;-63
2022/01/22 09:02:03;;;;;;;19.70;13.20;;;;;;;;;;781120;176;918873;-63
2022/01/22 09:04:30;;;;;;;14.80;8.17;;;;;;;;;;779040;177;918561;-65
2022/01/22 09:06:55;;;;;;;17.07;9.40;;;;;;;;;;784682;177;918793;-63
2022/01/22 09:09:20;;;;;;;30.87;13.53;;;;;;;;;;792169;176;919144;-64
2022/01/22 09:11:46;;;;;;;16.53;9.47;;;;;;;;;;776631;178;919532;-62
2022/01/22 09:14:12;;;;;;;7.83;5.83;;;;;;;;;;784027;177;925545;-64
2022/01/22 09:16:38;;;;;;;14.77;8.37;;;;;;;;;;779787;176;918722;-65
2022/01/22 09:19:07;;;;;;;17.73;8.03;;;;;;;;;;783124;176;936927;-64
2022/01/22 09:21:32;;;;;;;29.57;13.90;;;;;;;;;;780777;177;918597;-65
2022/01/22 09:23:57;;;;;;;33.03;16.77;;;;;;;;;;784693;177;918921;-66
2022/01/22 09:26:23;;;;;;;28.02;13.20;;;;;;;;;;780602;176;919309;-64
2022/01/22 09:28:50;;;;;;;30.97;13.07;;;;;;;;;;777278;177;918898;-66
2022/01/22 09:31:15;;;;;;;33.83;18.70;;;;;;;;;;784161;177;919445;-67
2022/01/22 09:33:41;;;;;;;13.50;7.70;;;;;;;;;;782952;176;918689;-66
2022/01/22 09:36:07;;;;;;;12.93;8.17;;;;;;;;;;780606;176;918742;-66
2022/01/22 09:38:33;;;;;;;8.23;5.43;;;;;;;;;;788327;176;943826;-65
2022/01/22 09:40:58;;;;;;;8.33;4.17;;;;;;;;;;795220;176;817320;-66
2022/01/22 09:43:24;;;;;;;10.10;6.57;;;;;;;;;;787727;176;918831;-66
2022/01/22 09:45:50;;;;;;;16.57;5.57;;;;;;;;;;782254;176;916143;-65
2022/01/22 09:48:16;;;;;;;8.20;3.53;;;;;;;;;;790601;177;919545;-65
2022/01/22 09:50:42;;;;;;;7.90;4.87;;;;;;;;;;785434;176;921562;-66
2022/01/22 09:53:08;;;;;;;3.90;2.65;;;;;;;;;;777908;177;919794;-67
2022/01/22 09:55:33;;;;;;;2.67;1.47;;;;;;;;;;781425;177;917487;-66
2022/01/22 09:57:59;;;;;;;5.50;3.10;;;;;;;;;;778197;177;914112;-66
2022/01/22 10:00:25;;;;;;;6.13;2.43;;;;;;;;;;784471;176;921138;-66
2022/01/22 10:02:51;;;;;;;2.90;1.60;;;;;;;;;;790830;176;920111;-65
2022/01/22 10:05:23;;;;;;;5.63;3.53;;;;;;;;;;781862;177;920373;-67
2022/01/22 10:07:52;;;;;;;10.23;6.40;;;;;;;;;;781499;177;1019786;-66
2022/01/22 10:10:14;;;;;;;12.23;7.50;;;;;;;;;;779342;177;919552;-67
2022/01/22 10:12:43;;;;;;;11.77;3.87;;;;;;;;;;783931;177;918437;-67
2022/01/22 10:15:09;;;;;;;14.77;5.77;;;;;;;;;;779078;177;1021649;-66
2022/01/22 10:17:38;;;;;;;15.90;7.40;;;;;;;;;;779353;177;1021149;-67
2022/01/22 10:20:05;;;;;;;10.88;4.10;;;;;;;;;;781091;177;919136;-66
2022/01/22 10:22:37;;;;;;;6.20;3.37;;;;;;;;;;780696;176;917917;-68
2022/01/22 10:25:03;;;;;;;10.67;5.13;;;;;;;;;;779403;177;952698;-67
2022/01/22 10:27:33;;;;;;;20.90;10.10;;;;;;;;;;777547;177;918852;-67
2022/01/22 10:30:07;;;;;;;15.10;6.10;;;;;;;;;;786062;176;922841;-68
2022/01/22 10:32:43;;;;;;;13.70;2.90;;;;;;;;;;786387;176;919155;-67
2022/01/22 10:35:02;;;;;;;12.23;6.10;;;;;;;;;;778308;177;918867;-67
2022/01/22 10:37:28;;;;;;;16.90;6.83;;;;;;;;;;778122;176;918954;-68
2022/01/22 10:39:55;;;;;;;11.05;4.75;;;;;;;;;;782762;177;919749;-66
2022/01/22 10:42:22;;;;;;;6.67;3.57;;;;;;;;;;775743;176;917637;-68
2022/01/22 10:44:49;;;;;;;87.13;24.90;;;;;;;;;;784273;176;919414;-68
2022/01/22 10:47:17;;;;;;;24.57;11.13;;;;;;;;;;785002;176;634938;-69
2022/01/22 10:49:43;;;;;;;13.80;7.87;;;;;;;;;;785343;176;918765;-67
2022/01/22 10:52:11;;;;;;;9.00;5.30;;;;;;;;;;778232;176;1003230;-67
2022/01/22 10:54:35;;;;;;;8.23;5.30;;;;;;;;;;780082;176;916789;-67
2022/01/22 10:57:09;;;;;;;7.93;4.13;;;;;;;;;;785483;176;918899;-66
2022/01/22 10:59:35;;;;;;;8.13;2.73;;;;;;;;;;785602;176;919020;-67
2022/01/22 11:02:00;;;;;;;6.23;3.93;;;;;;;;;;780404;176;919323;-67
2022/01/22 11:04:27;;;;;;;4.80;3.60;;;;;;;;;;779616;176;918524;-67
2022/01/22 11:06:53;;;;;;;5.47;3.40;;;;;;;;;;787003;176;1982721;-66
2022/01/22 11:09:19;;;;;;;11.73;7.93;;;;;;;;;;779815;177;917538;-67
2022/01/22 11:11:45;;;;;;;10.30;7.10;;;;;;;;;;778690;177;1021201;-69
2022/01/22 11:14:11;;;;;;;6.83;2.90;;;;;;;;;;779156;176;941699;-68
2022/01/22 11:16:38;;;;;;;9.23;5.23;;;;;;;;;;785143;177;671674;-67
2022/01/22 11:19:05;;;;;;;3.33;1.80;;;;;;;;;;775173;176;921675;-66
2022/01/22 11:21:31;;;;;;;11.23;4.63;;;;;;;;;;784472;174;923496;-66
2022/01/22 11:23:58;;;;;;;5.93;4.03;;;;;;;;;;785882;176;920013;-67
2022/01/22 11:26:25;;;;;;;17.70;6.00;;;;;;;;;;780955;177;917231;-66
2022/01/22 11:28:51;;;;;;;4.80;3.00;;;;;;;;;;777584;177;968579;-67
2022/01/22 11:31:17;;;;;;;26.10;11.50;;;;;;;;;;775277;177;928961;-65
2022/01/22 11:33:43;;;;;;;4.53;2.37;;;;;;;;;;781503;177;920618;-64
2022/01/22 11:36:09;;;;;;;4.70;2.20;;;;;;;;;;782414;176;919236;-66
2022/01/22 11:38:35;;;;;;;13.27;6.43;;;;;;;;;;788728;176;837588;-65
2022/01/22 11:41:01;;;;;;;35.40;16.07;;;;;;;;;;785378;177;633107;-66
2022/01/22 11:43:34;;;;;;;13.63;7.07;;;;;;;;;;774773;177;919444;-65
2022/01/22 11:45:54;;;;;;;14.17;7.40;;;;;;;;;;779968;177;905198;-63
2022/01/22 11:48:19;;;;;;;4.47;3.00;;;;;;;;;;785298;176;918601;-66
2022/01/22 11:50:45;;;;;;;7.30;3.50;;;;;;;;;;780509;177;910529;-65
2022/01/22 11:53:25;;;;;;;6.23;2.80;;;;;;;;;;776915;176;918516;-67
2022/01/22 11:56:09;;;;;;;11.57;8.07;;;;;;;;;;778114;175;919081;-66
2022/01/22 11:58:40;;;;;;;6.67;4.30;;;;;;;;;;772024;176;927648;-65
2022/01/22 12:01:06;;;;;;;7.13;4.50;;;;;;;;;;784633;176;816017;-67
2022/01/22 12:03:32;;;;;;;6.50;3.93;;;;;;;;;;788011;176;918592;-67
2022/01/22 12:06:08;;;;;;;6.60;3.67;;;;;;;;;;780382;177;1013939;-66
2022/01/22 12:08:33;;;;;;;5.87;3.70;;;;;;;;;;785291;176;929540;-66
2022/01/22 12:16:24;;;;;;;20.53;8.00;;;;;;;;;;783108;176;915162;-67
2022/01/22 12:18:57;;;;;;;11.03;5.53;;;;;;;;;;784959;176;913978;-67
2022/01/22 12:24:03;;;;;;;30.97;11.80;;;;;;;;;;782336;176;918888;-67
2022/01/22 12:26:35;;;;;;;27.57;10.60;;;;;;;;;;781422;177;868404;-66
2022/01/22 12:29:01;;;;;;;8.37;4.23;;;;;;;;;;779705;177;919983;-65
2022/01/22 12:31:28;;;;;;;10.37;6.10;;;;;;;;;;772504;180;920098;-65
2022/01/22 12:33:53;;;;;;;8.00;3.97;;;;;;;;;;775476;177;919920;-67
2022/01/22 12:36:23;;;;;;;9.73;4.37;;;;;;;;;;779453;176;918106;-67
2022/01/22 12:38:49;;;;;;;14.03;5.80;;;;;;;;;;783509;177;918010;-66
2022/01/22 12:41:32;;;;;;;26.95;13.05;;;;;;;;;;767714;180;919307;-66
2022/01/22 12:44:01;;;;;;;10.03;5.43;;;;;;;;;;757057;182;919519;-67
2022/01/22 12:46:26;;;;;;;19.02;9.48;;;;;;;;;;760614;182;922450;-67
2022/01/22 12:48:52;;;;;;;27.20;13.50;;;;;;;;;;778864;177;920564;-65
2022/01/22 12:51:20;;;;;;;18.87;8.87;;;;;;;;;;786788;177;919252;-66
2022/01/22 12:53:45;;;;;;;17.53;9.97;;;;;;;;;;778664;177;919739;-67
2022/01/22 12:56:35;;;;;;;20.65;13.70;;;;;;;;;;779976;176;900263;-67
2022/01/22 12:58:39;;;;;;;9.63;5.43;;;;;;;;;;783639;176;919043;-66
2022/01/22 13:01:07;;;;;;;18.90;8.20;;;;;;;;;;778287;177;920979;-67
2022/01/22 13:03:33;;;;;;;38.33;22.97;;;;;;;;;;777529;177;1020897;-67
2022/01/22 13:05:59;;;;;;;22.30;9.57;;;;;;;;;;779350;177;920075;-67
2022/01/22 13:08:27;;;;;;;22.20;9.90;;;;;;;;;;779284;177;918720;-66
2022/01/22 13:10:54;;;;;;;27.33;13.57;;;;;;;;;;787899;176;918610;-66
2022/01/22 13:13:19;;;;;;;14.17;8.73;;;;;;;;;;786338;176;731326;-66
2022/01/22 13:15:45;;;;;;;18.23;9.20;;;;;;;;;;787229;176;627062;-67
2022/01/22 13:18:11;;;;;;;21.80;10.57;;;;;;;;;;782769;176;919453;-66
2022/01/22 13:20:37;;;;;;;30.85;14.32;;;;;;;;;;781698;176;918665;-66
2022/01/22 13:23:18;;;;;;;24.70;11.27;;;;;;;;;;785245;177;919638;-66
2022/01/22 13:25:43;;;;;;;6.83;4.00;;;;;;;;;;783026;177;917876;-64
2022/01/22 13:28:12;;;;;;;13.67;8.47;;;;;;;;;;783179;177;680025;-65
2022/01/22 13:30:41;;;;;;;13.30;5.80;;;;;;;;;;780053;177;919906;-66
2022/01/22 13:33:06;;;;;;;11.57;5.73;;;;;;;;;;782001;176;917732;-62
2022/01/22 13:40:44;;;;;;;11.60;5.43;;;;;;;;;;779822;177;915861;-65
2022/01/22 13:48:33;;;;;;;6.03;3.50;;;;;;;;;;779678;177;1020754;-65
2022/01/22 13:50:59;;;;;;;4.87;2.23;;;;;;;;;;784378;177;815891;-65
2022/01/22 13:53:24;;;;;;;8.93;4.00;;;;;;;;;;781959;177;637585;-66
2022/01/22 13:55:56;;;;;;;6.23;3.47;;;;;;;;;;782382;177;622052;-66
2022/01/22 13:58:22;;;;;;;8.80;3.80;;;;;;;;;;778210;177;868711;-65
2022/01/22 14:00:48;;;;;;;9.10;3.30;;;;;;;;;;789182;177;634524;-65
2022/01/22 14:03:28;;;;;;;5.70;2.73;;;;;;;;;;781654;176;917344;-65
2022/01/22 14:05:40;;;;;;;5.90;3.07;;;;;;;;;;782195;176;918034;-65
2022/01/22 14:08:07;;;;;;;15.13;3.87;;;;;;;;;;788164;176;960902;-64
2022/01/22 14:10:32;;;;;;;7.43;2.27;;;;;;;;;;777713;176;1022271;-64
2022/01/22 14:13:06;;;;;;;10.87;4.77;;;;;;;;;;780181;177;918997;-63
2022/01/22 14:15:30;;;;;;;7.17;3.40;;;;;;;;;;778194;176;919554;-64
2022/01/22 14:20:31;;;;;;;4.50;3.43;;;;;;;;;;785322;174;918892;-65
2022/01/22 14:22:57;;;;;;;8.67;3.67;;;;;;;;;;779878;176;1021990;-63
2022/01/22 14:25:23;;;;;;;3.40;2.28;;;;;;;;;;780773;176;1018835;-65
2022/01/22 14:27:55;;;;;;;8.03;3.20;;;;;;;;;;767964;180;922339;-64
2022/01/22 14:30:26;;;;;;;4.87;3.07;;;;;;;;;;781268;176;919251;-62
2022/01/22 14:32:54;;;;;;;6.57;3.40;;;;;;;;;;779219;176;919437;-64
2022/01/22 14:35:20;;;;;;;7.43;3.70;;;;;;;;;;778788;176;918878;-64
2022/01/22 14:37:49;;;;;;;7.00;3.60;;;;;;;;;;784264;177;918769;-64
2022/01/22 14:45:24;;;;;;;5.93;3.83;;;;;;;;;;754202;184;906706;-63
2022/01/22 14:47:53;;;;;;;7.78;4.30;;;;;;;;;;768661;180;935787;-61
2022/01/22 14:50:18;;;;;;;4.80;3.43;;;;;;;;;;763188;179;919343;-63
2022/01/22 14:52:47;;;;;;;5.93;3.13;;;;;;;;;;777847;177;919081;-62
2022/01/22 14:55:10;;;;;;;7.15;3.62;;;;;;;;;;778722;176;918675;-62
2022/01/22 14:57:36;;;;;;;5.70;3.70;;;;;;;;;;784273;177;917276;-62
2022/01/22 15:00:06;;;;;;;6.50;3.67;;;;;;;;;;781148;177;960426;-63
2022/01/22 15:02:27;;;;;;;6.77;4.30;;;;;;;;;;780300;177;919363;-63
2022/01/22 15:04:53;;;;;;;4.03;2.37;;;;;;;;;;783187;177;922350;-62
2022/01/22 15:07:19;;;;;;;9.93;2.53;;;;;;;;;;781441;177;713195;-62
2022/01/22 15:09:45;;;;;;;9.57;3.33;;;;;;;;;;780639;177;882206;-62
2022/01/22 15:12:11;;;;;;;9.30;5.27;;;;;;;;;;775543;179;917978;-61
2022/01/22 15:14:37;;;;;;;13.03;6.87;;;;;;;;;;777882;177;920013;-61
2022/01/22 15:19:44;;;;;;;15.85;6.60;;;;;;;;;;774759;177;919027;-62
2022/01/22 15:22:10;;;;;;;7.70;3.50;;;;;;;;;;781089;177;919925;-61
2022/01/22 15:24:37;;;;;;;4.80;2.30;;;;;;;;;;787893;176;632341;-61
2022/01/22 15:27:03;;;;;;;12.43;4.97;;;;;;;;;;784790;177;639813;-61
2022/01/22 15:29:29;;;;;;;5.27;2.60;;;;;;;;;;786091;175;640149;-61
2022/01/22 15:34:43;;;;;;;8.27;4.20;;;;;;;;;;788008;176;918891;-61
2022/01/22 15:37:04;;;;;;;17.10;8.40;;;;;;;;;;781318;176;919627;-61
2022/01/22 15:39:29;;;;;;;8.37;4.90;;;;;;;;;;779334;177;920499;-61
2022/01/22 15:41:56;;;;;;;10.53;6.73;;;;;;;;;;782530;176;919594;-60
2022/01/22 15:44:22;;;;;;;16.67;7.20;;;;;;;;;;790982;176;671972;-60
2022/01/22 15:46:48;;;;;;;10.33;5.00;;;;;;;;;;780277;177;945180;-61
2022/01/22 15:49:17;;;;;;;12.90;6.53;;;;;;;;;;783204;177;634178;-60
2022/01/22 15:51:41;;;;;;;9.33;3.83;;;;;;;;;;784458;176;917025;-61
2022/01/22 15:54:07;;;;;;;16.13;5.20;;;;;;;;;;781472;176;919248;-61
2022/01/22 15:56:35;;;;;;;15.77;6.90;;;;;;;;;;778285;176;1042470;-60
2022/01/22 15:58:59;;;;;;;19.83;11.93;;;;;;;;;;786933;177;915877;-61
2022/01/22 16:01:25;;;;;;;16.07;5.13;;;;;;;;;;781101;177;915739;-61
2022/01/22 16:03:56;;;;;;;11.73;5.37;;;;;;;;;;781961;177;918393;-61